sensor_id;sensor_type;location;lat;lon;timestamp;P1;durP1;ratioP1;P2;durP2;ratioP2
9056;SDS011;4563;54.756;9.400;2022-12-29T00:00:09;0.77;;;0.77;;
9056;SDS011;4563;54.756;9.400;2022-12-29T00:02:37;0.90;;;0.90;;
9056;SDS011;4563;54.756;9.400;2022-12-29T00:05:04;1.57;;;0.93;;
9056;SDS011;4563;54.756;9.400;2022-12-29T00:07:33;1.33;;;1.23;;
9056;SDS011;4563;54.756;9.400;2022-12-29T00:10:00;1.40;;;1.30;;
9056;SDS011;4563;54.756;9.400;2022-12-29T00:12:27;3.33;;;1.40;;
9056;SDS011;4563;54.756;9.400;2022-12-29T00:15:14;1.50;;;1.30;;
9056;SDS011;4563;54.756;9.400;2022-12-29T00:17:59;1.53;;;1.10;;
9056;SDS011;4563;54.756;9.400;2022-12-29T00:20:26;1.77;;;1.30;;
9056;SDS011;4563;54.756;9.400;2022-12-29T00:23:13;1.37;;;1.33;;
9056;SDS011;4563;54.756;9.400;2022-12-29T00:25:57;1.27;;;1.20;;
9056;SDS011;4563;54.756;9.400;2022-12-29T00:28:51;1.40;;;1.30;;
9056;SDS011;4563;54.756;9.400;2022-12-29T00:31:36;1.83;;;1.03;;
9056;SDS011;4563;54.756;9.400;2022-12-29T00:34:29;1.73;;;1.20;;
9056;SDS011;4563;54.756;9.400;2022-12-29T00:37:13;1.97;;;1.07;;
9056;SDS011;4563;54.756;9.400;2022-12-29T00:39:41;1.23;;;1.10;;
9056;SDS011;4563;54.756;9.400;2022-12-29T00:42:26;3.20;;;1.40;;
9056;SDS011;4563;54.756;9.400;2022-12-29T00:45:10;1.50;;;1.20;;
9056;SDS011;4563;54.756;9.400;2022-12-29T00:47:38;2.13;;;1.40;;
9056;SDS011;4563;54.756;9.400;2022-12-29T00:50:05;1.57;;;1.47;;
9056;SDS011;4563;54.756;9.400;2022-12-29T00:52:32;2.13;;;1.30;;
9056;SDS011;4563;54.756;9.400;2022-12-29T00:55:01;1.70;;;1.60;;
9056;SDS011;4563;54.756;9.400;2022-12-29T00:57:28;1.60;;;1.50;;
9056;SDS011;4563;54.756;9.400;2022-12-29T00:59:55;1.73;;;1.50;;
9056;SDS011;4563;54.756;9.400;2022-12-29T01:02:22;7.90;;;1.40;;
9056;SDS011;4563;54.756;9.400;2022-12-29T01:04:49;1.43;;;1.33;;
9056;SDS011;4563;54.756;9.400;2022-12-29T01:07:16;1.30;;;1.20;;
9056;SDS011;4563;54.756;9.400;2022-12-29T01:09:44;1.40;;;1.40;;
9056;SDS011;4563;54.756;9.400;2022-12-29T01:12:41;1.30;;;1.20;;
9056;SDS011;4563;54.756;9.400;2022-12-29T01:15:10;1.67;;;1.50;;
9056;SDS011;4563;54.756;9.400;2022-12-29T01:17:39;2.03;;;1.17;;
9056;SDS011;4563;54.756;9.400;2022-12-29T01:20:06;1.53;;;1.40;;
9056;SDS011;4563;54.756;9.400;2022-12-29T01:22:35;3.63;;;1.30;;
9056;SDS011;4563;54.756;9.400;2022-12-29T01:25:02;1.47;;;1.20;;
9056;SDS011;4563;54.756;9.400;2022-12-29T01:27:30;2.03;;;1.30;;
9056;SDS011;4563;54.756;9.400;2022-12-29T01:29:58;1.67;;;1.57;;
9056;SDS011;4563;54.756;9.400;2022-12-29T01:32:25;1.33;;;1.30;;
9056;SDS011;4563;54.756;9.400;2022-12-29T01:34:52;3.63;;;1.30;;
9056;SDS011;4563;54.756;9.400;2022-12-29T01:37:19;3.63;;;1.33;;
9056;SDS011;4563;54.756;9.400;2022-12-29T01:39:46;1.40;;;1.30;;
9056;SDS011;4563;54.756;9.400;2022-12-29T01:42:14;1.27;;;1.27;;
9056;SDS011;4563;54.756;9.400;2022-12-29T01:44:47;1.07;;;1.07;;
9056;SDS011;4563;54.756;9.400;2022-12-29T01:47:21;2.37;;;1.40;;
9056;SDS011;4563;54.756;9.400;2022-12-29T01:49:52;1.20;;;1.10;;
9056;SDS011;4563;54.756;9.400;2022-12-29T01:52:22;1.20;;;1.10;;
9056;SDS011;4563;54.756;9.400;2022-12-29T01:54:52;0.97;;;0.97;;
9056;SDS011;4563;54.756;9.400;2022-12-29T01:57:23;1.50;;;1.40;;
9056;SDS011;4563;54.756;9.400;2022-12-29T01:59:56;1.47;;;1.33;;
9056;SDS011;4563;54.756;9.400;2022-12-29T02:02:29;1.93;;;1.30;;
9056;SDS011;4563;54.756;9.400;2022-12-29T02:04:58;1.90;;;0.93;;
9056;SDS011;4563;54.756;9.400;2022-12-29T02:07:27;2.00;;;1.90;;
9056;SDS011;4563;54.756;9.400;2022-12-29T02:09:55;2.70;;;2.47;;
9056;SDS011;4563;54.756;9.400;2022-12-29T02:12:22;3.20;;;1.53;;
9056;SDS011;4563;54.756;9.400;2022-12-29T02:14:52;1.40;;;1.40;;
9056;SDS011;4563;54.756;9.400;2022-12-29T02:17:23;1.70;;;1.53;;
9056;SDS011;4563;54.756;9.400;2022-12-29T02:23:13;1.30;;;1.20;;
9056;SDS011;4563;54.756;9.400;2022-12-29T02:26:15;1.73;;;1.30;;
9056;SDS011;4563;54.756;9.400;2022-12-29T02:32:21;1.20;;;1.20;;
9056;SDS011;4563;54.756;9.400;2022-12-29T02:34:55;2.73;;;1.50;;
9056;SDS011;4563;54.756;9.400;2022-12-29T02:37:30;2.43;;;1.73;;
9056;SDS011;4563;54.756;9.400;2022-12-29T02:40:05;1.00;;;1.00;;
9056;SDS011;4563;54.756;9.400;2022-12-29T02:42:41;1.70;;;1.07;;
9056;SDS011;4563;54.756;9.400;2022-12-29T02:45:15;1.30;;;1.17;;
9056;SDS011;4563;54.756;9.400;2022-12-29T02:47:49;1.03;;;1.03;;
9056;SDS011;4563;54.756;9.400;2022-12-29T02:50:22;1.13;;;1.10;;
9056;SDS011;4563;54.756;9.400;2022-12-29T02:52:54;1.63;;;1.20;;
9056;SDS011;4563;54.756;9.400;2022-12-29T02:55:25;1.40;;;1.40;;
9056;SDS011;4563;54.756;9.400;2022-12-29T02:58:06;2.40;;;1.30;;
9056;SDS011;4563;54.756;9.400;2022-12-29T03:00:43;1.27;;;1.27;;
9056;SDS011;4563;54.756;9.400;2022-12-29T03:03:25;2.73;;;1.23;;
9056;SDS011;4563;54.756;9.400;2022-12-29T03:06:07;1.80;;;1.53;;
9056;SDS011;4563;54.756;9.400;2022-12-29T03:08:48;1.47;;;1.37;;
9056;SDS011;4563;54.756;9.400;2022-12-29T03:11:21;1.40;;;1.30;;
9056;SDS011;4563;54.756;9.400;2022-12-29T03:14:12;1.53;;;1.20;;
9056;SDS011;4563;54.756;9.400;2022-12-29T03:17:02;2.80;;;1.20;;
9056;SDS011;4563;54.756;9.400;2022-12-29T03:19:37;1.00;;;1.00;;
9056;SDS011;4563;54.756;9.400;2022-12-29T03:22:07;1.80;;;1.13;;
9056;SDS011;4563;54.756;9.400;2022-12-29T03:24:57;3.30;;;1.20;;
9056;SDS011;4563;54.756;9.400;2022-12-29T03:27:27;1.30;;;1.27;;
9056;SDS011;4563;54.756;9.400;2022-12-29T03:29:57;2.23;;;1.40;;
9056;SDS011;4563;54.756;9.400;2022-12-29T03:32:28;1.60;;;1.50;;
9056;SDS011;4563;54.756;9.400;2022-12-29T03:34:59;1.10;;;1.10;;
9056;SDS011;4563;54.756;9.400;2022-12-29T03:37:28;1.50;;;1.40;;
9056;SDS011;4563;54.756;9.400;2022-12-29T03:40:00;1.20;;;1.20;;
9056;SDS011;4563;54.756;9.400;2022-12-29T03:42:28;3.70;;;1.40;;
9056;SDS011;4563;54.756;9.400;2022-12-29T03:44:58;1.37;;;1.27;;
9056;SDS011;4563;54.756;9.400;2022-12-29T03:47:25;3.10;;;1.43;;
9056;SDS011;4563;54.756;9.400;2022-12-29T03:49:52;0.53;;;0.53;;
9056;SDS011;4563;54.756;9.400;2022-12-29T03:52:20;1.60;;;1.50;;
9056;SDS011;4563;54.756;9.400;2022-12-29T03:54:47;2.40;;;1.63;;
9056;SDS011;4563;54.756;9.400;2022-12-29T03:57:14;1.40;;;1.40;;
9056;SDS011;4563;54.756;9.400;2022-12-29T03:59:40;1.30;;;1.20;;
9056;SDS011;4563;54.756;9.400;2022-12-29T04:02:07;1.13;;;1.13;;
9056;SDS011;4563;54.756;9.400;2022-12-29T04:04:34;1.70;;;1.60;;
9056;SDS011;4563;54.756;9.400;2022-12-29T04:07:01;1.20;;;1.10;;
9056;SDS011;4563;54.756;9.400;2022-12-29T04:09:29;3.60;;;1.80;;
9056;SDS011;4563;54.756;9.400;2022-12-29T04:11:56;2.13;;;1.70;;
9056;SDS011;4563;54.756;9.400;2022-12-29T04:14:23;1.50;;;1.50;;
9056;SDS011;4563;54.756;9.400;2022-12-29T04:16:49;1.80;;;1.70;;
9056;SDS011;4563;54.756;9.400;2022-12-29T04:19:16;3.10;;;1.77;;
9056;SDS011;4563;54.756;9.400;2022-12-29T04:21:43;1.70;;;1.60;;
9056;SDS011;4563;54.756;9.400;2022-12-29T04:24:10;1.87;;;1.77;;
9056;SDS011;4563;54.756;9.400;2022-12-29T04:26:39;1.90;;;1.80;;
9056;SDS011;4563;54.756;9.400;2022-12-29T04:29:06;1.93;;;1.60;;
9056;SDS011;4563;54.756;9.400;2022-12-29T04:31:33;1.33;;;1.10;;
9056;SDS011;4563;54.756;9.400;2022-12-29T04:34:00;1.60;;;1.27;;
9056;SDS011;4563;54.756;9.400;2022-12-29T04:36:26;1.97;;;1.40;;
9056;SDS011;4563;54.756;9.400;2022-12-29T04:38:53;1.80;;;1.70;;
9056;SDS011;4563;54.756;9.400;2022-12-29T04:41:20;1.70;;;1.60;;
9056;SDS011;4563;54.756;9.400;2022-12-29T04:43:48;1.30;;;1.20;;
9056;SDS011;4563;54.756;9.400;2022-12-29T04:46:15;1.87;;;1.40;;
9056;SDS011;4563;54.756;9.400;2022-12-29T04:48:42;1.53;;;1.43;;
9056;SDS011;4563;54.756;9.400;2022-12-29T04:51:09;2.30;;;1.20;;
9056;SDS011;4563;54.756;9.400;2022-12-29T04:53:35;1.97;;;1.53;;
9056;SDS011;4563;54.756;9.400;2022-12-29T04:56:02;1.13;;;1.10;;
9056;SDS011;4563;54.756;9.400;2022-12-29T04:58:29;1.50;;;1.40;;
9056;SDS011;4563;54.756;9.400;2022-12-29T05:00:57;1.10;;;1.10;;
9056;SDS011;4563;54.756;9.400;2022-12-29T05:03:24;2.43;;;1.10;;
9056;SDS011;4563;54.756;9.400;2022-12-29T05:05:52;1.17;;;1.00;;
9056;SDS011;4563;54.756;9.400;2022-12-29T05:08:19;0.70;;;0.70;;
9056;SDS011;4563;54.756;9.400;2022-12-29T05:10:46;0.80;;;0.80;;
9056;SDS011;4563;54.756;9.400;2022-12-29T05:13:13;0.83;;;0.70;;
9056;SDS011;4563;54.756;9.400;2022-12-29T05:15:40;2.57;;;0.50;;
9056;SDS011;4563;54.756;9.400;2022-12-29T05:18:08;1.70;;;0.60;;
9056;SDS011;4563;54.756;9.400;2022-12-29T05:20:35;3.23;;;1.00;;
9056;SDS011;4563;54.756;9.400;2022-12-29T05:23:01;0.80;;;0.70;;
9056;SDS011;4563;54.756;9.400;2022-12-29T05:25:28;0.60;;;0.60;;
9056;SDS011;4563;54.756;9.400;2022-12-29T05:27:55;0.70;;;0.70;;
9056;SDS011;4563;54.756;9.400;2022-12-29T05:30:22;0.33;;;0.33;;
9056;SDS011;4563;54.756;9.400;2022-12-29T05:32:48;0.40;;;0.40;;
9056;SDS011;4563;54.756;9.400;2022-12-29T05:35:17;0.30;;;0.30;;
9056;SDS011;4563;54.756;9.400;2022-12-29T05:37:43;1.83;;;0.40;;
9056;SDS011;4563;54.756;9.400;2022-12-29T05:40:10;2.00;;;0.40;;
9056;SDS011;4563;54.756;9.400;2022-12-29T05:42:37;1.67;;;0.20;;
9056;SDS011;4563;54.756;9.400;2022-12-29T05:45:05;0.20;;;0.10;;
9056;SDS011;4563;54.756;9.400;2022-12-29T05:47:33;1.33;;;0.10;;
9056;SDS011;4563;54.756;9.400;2022-12-29T05:50:00;0.70;;;0.10;;
9056;SDS011;4563;54.756;9.400;2022-12-29T05:52:29;2.00;;;0.10;;
9056;SDS011;4563;54.756;9.400;2022-12-29T05:54:55;1.50;;;0.10;;
9056;SDS011;4563;54.756;9.400;2022-12-29T05:57:22;1.13;;;0.20;;
9056;SDS011;4563;54.756;9.400;2022-12-29T05:59:49;4.13;;;0.20;;
9056;SDS011;4563;54.756;9.400;2022-12-29T06:02:16;0.67;;;0.20;;
9056;SDS011;4563;54.756;9.400;2022-12-29T06:04:42;0.70;;;0.10;;
9056;SDS011;4563;54.756;9.400;2022-12-29T06:07:09;1.80;;;0.20;;
9056;SDS011;4563;54.756;9.400;2022-12-29T06:09:37;2.63;;;0.20;;
9056;SDS011;4563;54.756;9.400;2022-12-29T06:12:04;1.43;;;0.23;;
9056;SDS011;4563;54.756;9.400;2022-12-29T06:14:31;0.50;;;0.10;;
9056;SDS011;4563;54.756;9.400;2022-12-29T06:16:58;5.00;;;0.27;;
9056;SDS011;4563;54.756;9.400;2022-12-29T06:19:25;2.43;;;0.27;;
9056;SDS011;4563;54.756;9.400;2022-12-29T06:21:52;3.93;;;0.40;;
9056;SDS011;4563;54.756;9.400;2022-12-29T06:24:19;1.77;;;0.30;;
9056;SDS011;4563;54.756;9.400;2022-12-29T06:26:48;3.93;;;0.30;;
9056;SDS011;4563;54.756;9.400;2022-12-29T06:29:14;3.27;;;0.33;;
9056;SDS011;4563;54.756;9.400;2022-12-29T06:31:42;4.93;;;0.30;;
9056;SDS011;4563;54.756;9.400;2022-12-29T06:34:10;3.27;;;0.20;;
9056;SDS011;4563;54.756;9.400;2022-12-29T06:36:37;1.37;;;0.10;;
9056;SDS011;4563;54.756;9.400;2022-12-29T06:39:04;1.37;;;0.60;;
9056;SDS011;4563;54.756;9.400;2022-12-29T06:41:31;7.63;;;0.67;;
9056;SDS011;4563;54.756;9.400;2022-12-29T06:43:59;1.17;;;0.80;;
9056;SDS011;4563;54.756;9.400;2022-12-29T06:46:26;4.70;;;0.60;;
9056;SDS011;4563;54.756;9.400;2022-12-29T06:48:52;3.83;;;0.50;;
9056;SDS011;4563;54.756;9.400;2022-12-29T06:51:19;2.57;;;0.40;;
9056;SDS011;4563;54.756;9.400;2022-12-29T06:53:46;3.87;;;0.53;;
9056;SDS011;4563;54.756;9.400;2022-12-29T06:56:13;4.60;;;0.40;;
9056;SDS011;4563;54.756;9.400;2022-12-29T06:58:39;4.67;;;0.63;;
9056;SDS011;4563;54.756;9.400;2022-12-29T07:01:07;5.67;;;0.50;;
9056;SDS011;4563;54.756;9.400;2022-12-29T07:03:34;3.97;;;0.50;;
9056;SDS011;4563;54.756;9.400;2022-12-29T07:06:01;1.80;;;0.40;;
9056;SDS011;4563;54.756;9.400;2022-12-29T07:08:28;4.03;;;0.47;;
9056;SDS011;4563;54.756;9.400;2022-12-29T07:10:55;3.93;;;0.50;;
9056;SDS011;4563;54.756;9.400;2022-12-29T07:13:22;9.07;;;0.80;;
9056;SDS011;4563;54.756;9.400;2022-12-29T07:15:48;4.47;;;0.80;;
9056;SDS011;4563;54.756;9.400;2022-12-29T07:18:16;2.80;;;1.00;;
9056;SDS011;4563;54.756;9.400;2022-12-29T07:20:43;3.50;;;0.60;;
9056;SDS011;4563;54.756;9.400;2022-12-29T07:23:10;2.20;;;0.60;;
9056;SDS011;4563;54.756;9.400;2022-12-29T07:25:37;1.83;;;0.40;;
9056;SDS011;4563;54.756;9.400;2022-12-29T07:28:05;4.17;;;0.60;;
9056;SDS011;4563;54.756;9.400;2022-12-29T07:30:33;6.43;;;0.50;;
9056;SDS011;4563;54.756;9.400;2022-12-29T07:32:59;3.57;;;0.80;;
9056;SDS011;4563;54.756;9.400;2022-12-29T07:35:27;4.57;;;0.70;;
9056;SDS011;4563;54.756;9.400;2022-12-29T07:37:54;8.20;;;0.60;;
9056;SDS011;4563;54.756;9.400;2022-12-29T07:40:21;12.80;;;1.10;;
9056;SDS011;4563;54.756;9.400;2022-12-29T07:42:48;6.93;;;0.80;;
9056;SDS011;4563;54.756;9.400;2022-12-29T07:45:14;8.00;;;0.77;;
9056;SDS011;4563;54.756;9.400;2022-12-29T07:47:41;7.10;;;1.00;;
9056;SDS011;4563;54.756;9.400;2022-12-29T07:50:08;8.50;;;0.80;;
9056;SDS011;4563;54.756;9.400;2022-12-29T07:52:36;7.23;;;1.47;;
9056;SDS011;4563;54.756;9.400;2022-12-29T07:55:03;8.00;;;1.07;;
9056;SDS011;4563;54.756;9.400;2022-12-29T07:57:31;16.50;;;3.90;;
9056;SDS011;4563;54.756;9.400;2022-12-29T07:59:57;7.60;;;1.70;;
9056;SDS011;4563;54.756;9.400;2022-12-29T08:02:24;7.00;;;0.80;;
9056;SDS011;4563;54.756;9.400;2022-12-29T08:04:52;15.63;;;0.90;;
9056;SDS011;4563;54.756;9.400;2022-12-29T08:07:18;6.73;;;0.80;;
9056;SDS011;4563;54.756;9.400;2022-12-29T08:09:46;9.00;;;1.33;;
9056;SDS011;4563;54.756;9.400;2022-12-29T08:12:13;6.50;;;0.90;;
9056;SDS011;4563;54.756;9.400;2022-12-29T08:14:40;10.30;;;0.80;;
9056;SDS011;4563;54.756;9.400;2022-12-29T08:17:07;6.57;;;0.90;;
9056;SDS011;4563;54.756;9.400;2022-12-29T08:19:33;14.73;;;1.17;;
9056;SDS011;4563;54.756;9.400;2022-12-29T08:22:00;11.03;;;0.90;;
9056;SDS011;4563;54.756;9.400;2022-12-29T08:24:27;11.23;;;1.00;;
9056;SDS011;4563;54.756;9.400;2022-12-29T08:26:55;7.13;;;1.07;;
9056;SDS011;4563;54.756;9.400;2022-12-29T08:29:22;8.20;;;1.23;;
9056;SDS011;4563;54.756;9.400;2022-12-29T08:31:49;9.03;;;0.80;;
9056;SDS011;4563;54.756;9.400;2022-12-29T08:34:16;11.83;;;0.90;;
9056;SDS011;4563;54.756;9.400;2022-12-29T08:36:44;18.17;;;1.33;;
9056;SDS011;4563;54.756;9.400;2022-12-29T08:39:11;3.83;;;1.07;;
9056;SDS011;4563;54.756;9.400;2022-12-29T08:41:38;8.47;;;1.13;;
9056;SDS011;4563;54.756;9.400;2022-12-29T08:44:06;6.53;;;1.47;;
9056;SDS011;4563;54.756;9.400;2022-12-29T08:46:33;12.97;;;1.53;;
9056;SDS011;4563;54.756;9.400;2022-12-29T08:48:59;10.50;;;1.20;;
9056;SDS011;4563;54.756;9.400;2022-12-29T08:51:26;9.30;;;1.43;;
9056;SDS011;4563;54.756;9.400;2022-12-29T08:53:53;11.67;;;1.17;;
9056;SDS011;4563;54.756;9.400;2022-12-29T08:56:20;7.80;;;1.37;;
9056;SDS011;4563;54.756;9.400;2022-12-29T08:58:48;8.30;;;1.33;;
9056;SDS011;4563;54.756;9.400;2022-12-29T09:01:17;9.53;;;4.30;;
9056;SDS011;4563;54.756;9.400;2022-12-29T09:03:44;8.43;;;1.57;;
9056;SDS011;4563;54.756;9.400;2022-12-29T09:06:11;7.23;;;1.20;;
9056;SDS011;4563;54.756;9.400;2022-12-29T09:08:38;13.27;;;1.63;;
9056;SDS011;4563;54.756;9.400;2022-12-29T09:11:06;9.27;;;1.20;;
9056;SDS011;4563;54.756;9.400;2022-12-29T09:13:33;7.77;;;1.00;;
9056;SDS011;4563;54.756;9.400;2022-12-29T09:16:00;11.97;;;1.33;;
9056;SDS011;4563;54.756;9.400;2022-12-29T09:18:29;11.47;;;1.73;;
9056;SDS011;4563;54.756;9.400;2022-12-29T09:20:56;9.70;;;1.37;;
9056;SDS011;4563;54.756;9.400;2022-12-29T09:23:23;15.37;;;2.57;;
9056;SDS011;4563;54.756;9.400;2022-12-29T09:25:50;10.70;;;2.07;;
9056;SDS011;4563;54.756;9.400;2022-12-29T09:28:17;15.67;;;1.67;;
9056;SDS011;4563;54.756;9.400;2022-12-29T09:30:44;8.90;;;1.03;;
9056;SDS011;4563;54.756;9.400;2022-12-29T09:33:11;8.40;;;1.73;;
9056;SDS011;4563;54.756;9.400;2022-12-29T09:35:42;11.93;;;1.90;;
9056;SDS011;4563;54.756;9.400;2022-12-29T09:38:09;7.00;;;1.27;;
9056;SDS011;4563;54.756;9.400;2022-12-29T09:40:36;8.27;;;1.10;;
9056;SDS011;4563;54.756;9.400;2022-12-29T09:43:09;9.17;;;1.70;;
9056;SDS011;4563;54.756;9.400;2022-12-29T09:46:02;8.50;;;1.43;;
9056;SDS011;4563;54.756;9.400;2022-12-29T09:48:39;10.83;;;1.73;;
9056;SDS011;4563;54.756;9.400;2022-12-29T09:51:12;10.77;;;2.23;;
9056;SDS011;4563;54.756;9.400;2022-12-29T09:53:42;15.40;;;1.70;;
9056;SDS011;4563;54.756;9.400;2022-12-29T09:56:13;12.00;;;1.80;;
9056;SDS011;4563;54.756;9.400;2022-12-29T09:58:42;8.43;;;1.47;;
9056;SDS011;4563;54.756;9.400;2022-12-29T10:01:18;10.43;;;1.33;;
9056;SDS011;4563;54.756;9.400;2022-12-29T10:03:54;12.00;;;1.83;;
9056;SDS011;4563;54.756;9.400;2022-12-29T10:06:24;12.50;;;1.90;;
9056;SDS011;4563;54.756;9.400;2022-12-29T10:08:57;13.00;;;1.50;;
9056;SDS011;4563;54.756;9.400;2022-12-29T10:11:31;16.00;;;2.17;;
9056;SDS011;4563;54.756;9.400;2022-12-29T10:14:17;11.77;;;1.47;;
9056;SDS011;4563;54.756;9.400;2022-12-29T10:16:57;14.20;;;2.40;;
9056;SDS011;4563;54.756;9.400;2022-12-29T10:19:34;12.30;;;1.60;;
9056;SDS011;4563;54.756;9.400;2022-12-29T10:22:15;8.70;;;1.30;;
9056;SDS011;4563;54.756;9.400;2022-12-29T10:24:49;13.13;;;1.50;;
9056;SDS011;4563;54.756;9.400;2022-12-29T10:27:19;15.83;;;1.90;;
9056;SDS011;4563;54.756;9.400;2022-12-29T10:29:48;13.07;;;1.67;;
9056;SDS011;4563;54.756;9.400;2022-12-29T10:32:21;13.03;;;1.80;;
9056;SDS011;4563;54.756;9.400;2022-12-29T10:34:53;7.63;;;1.53;;
9056;SDS011;4563;54.756;9.400;2022-12-29T10:37:29;19.77;;;6.93;;
9056;SDS011;4563;54.756;9.400;2022-12-29T10:40:00;6.07;;;1.37;;
9056;SDS011;4563;54.756;9.400;2022-12-29T10:42:39;12.67;;;1.90;;
9056;SDS011;4563;54.756;9.400;2022-12-29T10:45:11;11.87;;;3.23;;
9056;SDS011;4563;54.756;9.400;2022-12-29T10:47:42;14.30;;;3.33;;
9056;SDS011;4563;54.756;9.400;2022-12-29T10:50:16;12.97;;;1.57;;
9056;SDS011;4563;54.756;9.400;2022-12-29T10:52:44;8.43;;;1.53;;
9056;SDS011;4563;54.756;9.400;2022-12-29T10:55:13;12.03;;;1.20;;
9056;SDS011;4563;54.756;9.400;2022-12-29T10:57:44;13.20;;;1.57;;
9056;SDS011;4563;54.756;9.400;2022-12-29T11:00:12;5.87;;;1.00;;
9056;SDS011;4563;54.756;9.400;2022-12-29T11:02:50;9.20;;;1.40;;
9056;SDS011;4563;54.756;9.400;2022-12-29T11:05:32;10.10;;;1.70;;
9056;SDS011;4563;54.756;9.400;2022-12-29T11:08:08;8.33;;;1.57;;
9056;SDS011;4563;54.756;9.400;2022-12-29T11:10:39;4.30;;;0.87;;
9056;SDS011;4563;54.756;9.400;2022-12-29T11:13:11;7.07;;;0.90;;
9056;SDS011;4563;54.756;9.400;2022-12-29T11:15:40;10.60;;;1.43;;
9056;SDS011;4563;54.756;9.400;2022-12-29T11:18:17;6.27;;;1.17;;
9056;SDS011;4563;54.756;9.400;2022-12-29T11:20:45;8.10;;;1.33;;
9056;SDS011;4563;54.756;9.400;2022-12-29T11:23:22;10.43;;;1.20;;
9056;SDS011;4563;54.756;9.400;2022-12-29T11:26:15;6.03;;;1.17;;
9056;SDS011;4563;54.756;9.400;2022-12-29T11:28:45;8.97;;;1.47;;
9056;SDS011;4563;54.756;9.400;2022-12-29T11:31:17;8.50;;;1.20;;
9056;SDS011;4563;54.756;9.400;2022-12-29T11:33:47;12.97;;;1.23;;
9056;SDS011;4563;54.756;9.400;2022-12-29T11:36:15;13.60;;;1.43;;
9056;SDS011;4563;54.756;9.400;2022-12-29T11:38:47;7.63;;;1.10;;
9056;SDS011;4563;54.756;9.400;2022-12-29T11:41:19;12.20;;;2.50;;
9056;SDS011;4563;54.756;9.400;2022-12-29T11:43:48;6.30;;;1.50;;
9056;SDS011;4563;54.756;9.400;2022-12-29T11:46:16;9.00;;;1.30;;
9056;SDS011;4563;54.756;9.400;2022-12-29T11:48:46;11.17;;;1.63;;
9056;SDS011;4563;54.756;9.400;2022-12-29T11:51:20;12.50;;;1.57;;
9056;SDS011;4563;54.756;9.400;2022-12-29T11:53:51;4.90;;;1.20;;
9056;SDS011;4563;54.756;9.400;2022-12-29T11:56:22;8.83;;;1.37;;
9056;SDS011;4563;54.756;9.400;2022-12-29T12:02:03;10.63;;;1.43;;
9056;SDS011;4563;54.756;9.400;2022-12-29T12:04:43;9.03;;;1.30;;
9056;SDS011;4563;54.756;9.400;2022-12-29T12:07:11;7.27;;;1.17;;
9056;SDS011;4563;54.756;9.400;2022-12-29T12:09:43;6.33;;;1.30;;
9056;SDS011;4563;54.756;9.400;2022-12-29T12:12:22;8.93;;;1.53;;
9056;SDS011;4563;54.756;9.400;2022-12-29T12:14:54;11.17;;;1.80;;
9056;SDS011;4563;54.756;9.400;2022-12-29T12:17:25;14.77;;;1.47;;
9056;SDS011;4563;54.756;9.400;2022-12-29T12:20:03;13.20;;;1.50;;
9056;SDS011;4563;54.756;9.400;2022-12-29T12:22:41;16.73;;;1.53;;
9056;SDS011;4563;54.756;9.400;2022-12-29T12:25:14;7.40;;;1.30;;
9056;SDS011;4563;54.756;9.400;2022-12-29T12:27:48;7.27;;;0.87;;
9056;SDS011;4563;54.756;9.400;2022-12-29T12:30:19;6.73;;;1.17;;
9056;SDS011;4563;54.756;9.400;2022-12-29T12:32:48;10.60;;;1.77;;
9056;SDS011;4563;54.756;9.400;2022-12-29T12:35:22;5.67;;;1.00;;
9056;SDS011;4563;54.756;9.400;2022-12-29T12:38:11;9.20;;;1.43;;
9056;SDS011;4563;54.756;9.400;2022-12-29T12:40:53;10.87;;;1.27;;
9056;SDS011;4563;54.756;9.400;2022-12-29T12:43:34;10.40;;;1.13;;
9056;SDS011;4563;54.756;9.400;2022-12-29T12:46:24;9.17;;;1.10;;
9056;SDS011;4563;54.756;9.400;2022-12-29T12:49:20;8.33;;;0.73;;
9056;SDS011;4563;54.756;9.400;2022-12-29T12:52:06;8.47;;;1.00;;
9056;SDS011;4563;54.756;9.400;2022-12-29T12:54:42;2.70;;;0.50;;
9056;SDS011;4563;54.756;9.400;2022-12-29T12:57:22;4.57;;;0.70;;
9056;SDS011;4563;54.756;9.400;2022-12-29T13:00:00;2.70;;;0.60;;
9056;SDS011;4563;54.756;9.400;2022-12-29T13:02:42;4.53;;;0.73;;
9056;SDS011;4563;54.756;9.400;2022-12-29T13:05:17;4.70;;;1.00;;
9056;SDS011;4563;54.756;9.400;2022-12-29T13:07:55;4.33;;;0.90;;
9056;SDS011;4563;54.756;9.400;2022-12-29T13:10:36;6.10;;;1.07;;
9056;SDS011;4563;54.756;9.400;2022-12-29T13:13:28;9.90;;;1.40;;
9056;SDS011;4563;54.756;9.400;2022-12-29T13:16:16;7.73;;;0.83;;
9056;SDS011;4563;54.756;9.400;2022-12-29T13:18:52;8.90;;;1.03;;
9056;SDS011;4563;54.756;9.400;2022-12-29T13:21:29;14.00;;;1.70;;
9056;SDS011;4563;54.756;9.400;2022-12-29T13:24:09;12.70;;;1.90;;
9056;SDS011;4563;54.756;9.400;2022-12-29T13:26:43;10.40;;;1.33;;
9056;SDS011;4563;54.756;9.400;2022-12-29T13:29:16;18.83;;;1.70;;
9056;SDS011;4563;54.756;9.400;2022-12-29T13:31:50;5.20;;;1.03;;
9056;SDS011;4563;54.756;9.400;2022-12-29T13:34:24;10.43;;;1.80;;
9056;SDS011;4563;54.756;9.400;2022-12-29T13:37:01;11.60;;;1.67;;
9056;SDS011;4563;54.756;9.400;2022-12-29T13:39:31;19.23;;;2.30;;
9056;SDS011;4563;54.756;9.400;2022-12-29T13:42:00;15.70;;;2.13;;
9056;SDS011;4563;54.756;9.400;2022-12-29T13:44:31;20.57;;;2.73;;
9056;SDS011;4563;54.756;9.400;2022-12-29T13:47:02;22.03;;;3.87;;
9056;SDS011;4563;54.756;9.400;2022-12-29T13:49:37;20.90;;;3.23;;
9056;SDS011;4563;54.756;9.400;2022-12-29T13:52:08;23.70;;;3.50;;
9056;SDS011;4563;54.756;9.400;2022-12-29T13:54:43;22.77;;;2.93;;
9056;SDS011;4563;54.756;9.400;2022-12-29T13:57:23;18.27;;;2.60;;
9056;SDS011;4563;54.756;9.400;2022-12-29T14:00:03;19.97;;;3.20;;
9056;SDS011;4563;54.756;9.400;2022-12-29T14:02:48;15.87;;;3.20;;
9056;SDS011;4563;54.756;9.400;2022-12-29T14:05:42;23.63;;;2.90;;
9056;SDS011;4563;54.756;9.400;2022-12-29T14:08:28;25.00;;;3.43;;
9056;SDS011;4563;54.756;9.400;2022-12-29T14:11:00;19.57;;;3.20;;
9056;SDS011;4563;54.756;9.400;2022-12-29T14:13:36;17.57;;;3.23;;
9056;SDS011;4563;54.756;9.400;2022-12-29T14:16:07;25.73;;;3.50;;
9056;SDS011;4563;54.756;9.400;2022-12-29T14:18:47;25.60;;;3.40;;
9056;SDS011;4563;54.756;9.400;2022-12-29T14:21:17;26.47;;;3.67;;
9056;SDS011;4563;54.756;9.400;2022-12-29T14:23:48;23.63;;;3.07;;
9056;SDS011;4563;54.756;9.400;2022-12-29T14:26:17;27.90;;;3.87;;
9056;SDS011;4563;54.756;9.400;2022-12-29T14:32:00;15.63;;;3.07;;
9056;SDS011;4563;54.756;9.400;2022-12-29T14:34:28;21.47;;;3.30;;
9056;SDS011;4563;54.756;9.400;2022-12-29T14:36:57;15.90;;;2.73;;
9056;SDS011;4563;54.756;9.400;2022-12-29T14:39:31;20.50;;;3.03;;
9056;SDS011;4563;54.756;9.400;2022-12-29T14:42:00;17.63;;;2.70;;
9056;SDS011;4563;54.756;9.400;2022-12-29T14:44:30;20.77;;;2.57;;
9056;SDS011;4563;54.756;9.400;2022-12-29T14:46:57;16.23;;;2.17;;
9056;SDS011;4563;54.756;9.400;2022-12-29T14:49:30;16.57;;;2.87;;
9056;SDS011;4563;54.756;9.400;2022-12-29T14:52:04;20.57;;;3.13;;
9056;SDS011;4563;54.756;9.400;2022-12-29T14:54:46;14.23;;;2.20;;
9056;SDS011;4563;54.756;9.400;2022-12-29T15:00:01;15.97;;;2.13;;
9056;SDS011;4563;54.756;9.400;2022-12-29T15:02:36;12.23;;;2.40;;
9056;SDS011;4563;54.756;9.400;2022-12-29T15:05:10;17.73;;;3.03;;
9056;SDS011;4563;54.756;9.400;2022-12-29T15:07:50;12.60;;;1.97;;
9056;SDS011;4563;54.756;9.400;2022-12-29T15:10:18;18.50;;;2.53;;
9056;SDS011;4563;54.756;9.400;2022-12-29T15:12:49;11.63;;;2.30;;
9056;SDS011;4563;54.756;9.400;2022-12-29T15:15:20;21.30;;;2.87;;
9056;SDS011;4563;54.756;9.400;2022-12-29T15:17:50;14.27;;;2.67;;
9056;SDS011;4563;54.756;9.400;2022-12-29T15:20:20;15.43;;;2.50;;
9056;SDS011;4563;54.756;9.400;2022-12-29T15:22:50;14.60;;;2.53;;
9056;SDS011;4563;54.756;9.400;2022-12-29T15:25:20;17.87;;;2.60;;
9056;SDS011;4563;54.756;9.400;2022-12-29T15:27:50;19.70;;;2.67;;
9056;SDS011;4563;54.756;9.400;2022-12-29T15:30:18;19.50;;;3.23;;
9056;SDS011;4563;54.756;9.400;2022-12-29T15:32:46;14.43;;;2.23;;
9056;SDS011;4563;54.756;9.400;2022-12-29T15:38:12;14.30;;;2.03;;
9056;SDS011;4563;54.756;9.400;2022-12-29T15:40:41;12.73;;;2.33;;
9056;SDS011;4563;54.756;9.400;2022-12-29T15:46:10;9.97;;;1.70;;
9056;SDS011;4563;54.756;9.400;2022-12-29T15:48:38;24.33;;;3.20;;
9056;SDS011;4563;54.756;9.400;2022-12-29T15:51:11;15.70;;;2.80;;
9056;SDS011;4563;54.756;9.400;2022-12-29T15:53:46;24.33;;;2.53;;
9056;SDS011;4563;54.756;9.400;2022-12-29T15:56:14;15.13;;;2.20;;